Latest Coastal Weather Observations for Lake Macquarie - Cooranbong

IDN60701

Issued at 12:32 pm EDT Saturday 20 December 2014 (issued every 10 minutes, with the page automatically refreshed every 10 minutes)

About coastal observations | Map of coastal stations | Coastal observations for NSW | Marine services | Other Formats
Station Details ID: 061412 Name: LAKE MACQUARIE AWS Lat: -33.09 Lon: 151.46 Height: 6.0 m
Data from the previous 72 hours. | See also: Recent months at Lake Macquarie - Cooranbong
Date/Time
EDT
Temp

°C
Wind Pressure Rain
since 9am
mm
Weather Cloud Vis
km
Sea
Height
m
Swell
Dir
 
Speed
knots
Gust
knots
hPa Trend Height
m
Period
s
Dir
20/12:30pm 23.0 ENE 5 9 1018.0 - 0.0 - - - - - - -
20/12:00pm 22.4 ENE 5 9 1018.2 - 0.0 - - - - - - -
20/11:30am 22.2 ESE 4 8 1018.4 - 0.0 - - - - - - -
20/11:00am 21.4 ENE 4 7 1018.5 - 0.0 - - - - - - -
20/10:30am 21.7 SE 2 5 1018.4 - 0.0 - - - - - - -
20/10:00am 21.7 SE 4 7 1018.5 - 0.0 - - - - - - -
20/09:30am 21.6 ESE 3 7 1018.4 - 0.0 - - - - - - -
20/09:00am 20.4 E 3 6 1018.4 - 0.0 - - - - - - -
20/08:30am 19.7 SW 2 3 1018.4 - 0.0 - - - - - - -
20/08:00am 19.0 SSW 2 4 1018.3 - 0.0 - - - - - - -
20/07:30am 18.0 CALM 0 0 1018.2 - 0.0 - - - - - - -
20/07:00am 15.5 CALM 0 0 1017.9 - 0.0 - - - - - - -
20/06:30am 14.3 CALM 0 0 1017.7 - 0.0 - - - - - - -
20/06:00am 13.6 WNW 1 3 1017.5 - 0.0 - - - - - - -
20/05:30am 13.9 CALM 0 0 1017.3 - 0.0 - - - - - - -
20/05:00am 14.5 CALM 0 0 1017.1 - 0.0 - - - - - - -
20/04:30am 14.7 CALM 0 0 1017.0 - 0.0 - - - - - - -
20/04:00am 15.4 CALM 0 0 1016.9 - 0.0 - - - - - - -
20/03:30am 16.2 CALM 0 0 1017.0 - 0.0 - - - - - - -
20/03:00am 16.2 CALM 0 0 1017.0 - 0.0 - - - - - - -
20/02:30am 16.5 CALM 0 2 1017.3 - 0.0 - - - - - - -
20/02:00am 17.2 CALM 0 0 1017.4 - 0.0 - - - - - - -
20/01:30am 18.2 CALM 0 1 1017.7 - 0.0 - - - - - - -
20/01:00am 18.4 CALM 0 0 1018.1 - 0.0 - - - - - - -
20/12:30am 18.6 CALM 0 0 1018.3 - 0.0 - - - - - - -
 
Date/Time
EDT
Temp

°C
Wind Pressure Rain
since 9am
mm
Weather Cloud Vis
km
Sea
Height
m
Swell
Dir
 
Speed
knots
Gust
knots
hPa Trend Height
m
Period
s
Dir
19/11:30pm 18.8 S 1 4 1018.6 - 0.0 - - - - - - -
19/11:00pm 18.8 CALM 0 2 1018.7 - 0.0 - - - - - - -
19/10:30pm 19.1 S 2 4 1018.5 - 0.0 - - - - - - -
19/10:00pm 19.1 S 2 4 1018.4 - 0.0 - - - - - - -
19/09:30pm 19.1 S 2 5 1017.8 - 0.0 - - - - - - -
19/09:00pm 19.1 SSE 2 5 1017.4 - 0.0 - - - - - - -
19/08:30pm 19.2 S 2 4 1017.1 - 0.0 - - - - - - -
19/08:00pm 19.3 SSE 4 7 1016.6 - 0.0 - - - - - - -
19/07:30pm 19.6 SSE 4 9 1015.8 - 0.0 - - - - - - -
19/07:00pm 20.0 S 4 8 1015.2 - 0.0 - - - - - - -
19/06:30pm 20.3 SE 5 9 1014.4 - 0.0 - - - - - - -
19/06:00pm 20.4 SSE 5 9 1013.8 - 0.0 - - - - - - -
19/05:30pm 20.7 SSE 6 10 1013.4 - 0.0 - - - - - - -
19/05:00pm 20.9 ESE 6 12 1013.0 - 0.0 - - - - - - -
19/04:30pm 21.3 SE 6 13 1012.9 - 0.0 - - - - - - -
19/04:00pm 21.6 SE 6 11 1012.8 - 0.0 - - - - - - -
19/03:30pm 21.8 SE 6 12 1012.9 - 0.0 - - - - - - -
19/03:00pm 21.6 SE 7 14 1013.0 - 0.0 - - - - - - -
19/02:30pm 21.7 SE 5 11 1013.1 - 0.0 - - - - - - -
19/02:00pm 21.9 SSE 6 12 1013.0 - 0.0 - - - - - - -
19/01:30pm 21.6 SE 7 11 1013.1 - 0.0 - - - - - - -
19/01:00pm 22.0 ESE 7 11 1012.9 - 0.0 - - - - - - -
19/12:30pm 22.1 ESE 10 17 1013.2 - 0.0 - - - - - - -
19/12:00pm 22.0 SE 8 14 1013.3 - 0.0 - - - - - - -
19/11:30am 21.9 ESE 9 16 1013.0 - 0.0 - - - - - - -
19/11:00am 22.9 SE 5 11 1013.2 - 0.0 - - - - - - -
19/10:30am 21.8 SSE 5 11 1013.2 - 0.0 - - - - - - -
19/10:00am 21.6 SSE 5 12 1013.0 - 0.0 - - - - - - -
19/09:30am 21.3 SSW 4 8 1012.9 - 0.0 - - - - - - -
19/09:00am 21.0 SSW 5 11 1012.8 - 0.0 - - - - - - -
19/08:30am 20.8 S 6 14 1012.6 - 0.0 - - - - - - -
19/08:00am 21.4 SSW 3 8 1011.9 - 0.0 - - - - - - -
19/07:30am 19.5 SSW 5 11 1011.3 - 0.0 - - - - - - -
19/07:00am 19.4 S 5 15 1010.8 - 0.0 - - - - - - -
19/06:30am 19.5 SSE 5 9 1010.2 - 0.0 - - - - - - -
19/06:00am 20.2 SE 5 10 1009.1 - 0.0 - - - - - - -
19/05:30am 21.5 SW 4 7 1008.0 - 0.0 - - - - - - -
19/05:00am 21.8 SW 7 12 1007.6 - 0.0 - - - - - - -
19/04:49am 21.5 SW 5 12 1007.3 - 0.0 - - - - - - -
19/04:30am 16.5 WSW 4 9 1007.0 - 0.0 - - - - - - -
19/04:00am 15.5 CALM 0 0 1006.5 - 0.0 - - - - - - -
19/03:30am 16.1 CALM 0 0 1006.2 - 0.0 - - - - - - -
19/03:00am 16.3 CALM 0 0 1005.9 - 0.0 - - - - - - -
19/02:30am 16.8 CALM 0 0 1005.9 - 0.0 - - - - - - -
19/02:00am 17.5 CALM 0 0 1005.8 - 0.0 - - - - - - -
19/01:30am 17.9 CALM 0 0 1005.8 - 0.0 - - - - - - -
19/01:00am 18.5 CALM 0 0 1006.3 - 0.0 - - - - - - -
19/12:30am 19.3 CALM 0 0 1006.6 - 0.0 - - - - - - -
19/12:00am 20.0 CALM 0 0 1006.8 - 0.0 - - - - - - -
 
Date/Time
EDT
Temp

°C
Wind Pressure Rain
since 9am
mm
Weather Cloud Vis
km
Sea
Height
m
Swell
Dir
 
Speed
knots
Gust
knots
hPa Trend Height
m
Period
s
Dir
18/11:30pm 20.2 CALM 0 1 1006.8 - 0.0 - - - - - - -
18/11:00pm 20.7 CALM 0 1 1006.8 - 0.0 - - - - - - -
18/10:30pm 21.5 WNW 1 3 1006.7 - 0.0 - - - - - - -
18/10:00pm 22.1 CALM 0 0 1006.5 - 0.0 - - - - - - -
18/09:30pm 22.9 CALM 0 0 1006.1 - 0.0 - - - - - - -
18/09:00pm 23.4 CALM 0 0 1005.9 - 0.0 - - - - - - -
18/08:30pm 24.8 E 1 2 1005.5 - 0.0 - - - - - - -
18/08:00pm 25.5 E 2 4 1005.2 - 0.0 - - - - - - -
18/07:30pm 26.4 ENE 2 5 1004.6 - 0.0 - - - - - - -
18/07:00pm 26.8 NE 4 7 1004.0 - 0.0 - - - - - - -
18/06:30pm 26.7 NNE 6 11 1003.8 - 0.0 - - - - - - -
18/06:00pm 27.1 NE 5 8 1003.4 - 0.0 - - - - - - -
18/05:30pm 27.2 ENE 4 8 1003.5 - 0.0 - - - - - - -
18/05:00pm 26.1 NE 4 6 1003.5 - 0.0 - - - - - - -
18/04:30pm 26.3 E 5 8 1003.9 - 0.0 - - - - - - -
18/04:00pm 26.4 E 5 8 1004.7 - 0.0 - - - - - - -
18/03:30pm 25.4 ESE 7 10 1005.1 - 0.0 - - - - - - -
18/03:00pm 25.2 ESE 5 9 1006.0 - 0.0 - - - - - - -
18/02:30pm 25.3 E 7 11 1006.2 - 0.0 - - - - - - -
18/02:00pm 25.1 ESE 6 10 1006.4 - 0.0 - - - - - - -
18/01:30pm 25.3 ESE 6 8 1006.7 - 0.0 - - - - - - -
18/01:00pm 25.7 E 4 8 1006.9 - 0.0 - - - - - - -
18/12:30pm 25.2 ENE 4 7 1007.2 - 0.0 - - - - - - -
18/12:00pm 25.6 NE 4 7 1007.4 - 0.0 - - - - - - -
18/11:30am 24.9 ESE 3 5 1007.9 - 0.0 - - - - - - -
18/11:00am 24.7 ESE 3 5 1008.2 - 0.0 - - - - - - -
18/10:30am 24.0 E 4 5 1008.4 - 0.0 - - - - - - -
18/10:00am 23.3 SW 3 7 1008.5 - 0.0 - - - - - - -
18/09:30am 21.8 SW 3 5 1009.0 - 0.0 - - - - - - -
18/09:00am 21.0 ESE 2 5 1008.9 - 0.0 - - - - - - -
18/08:30am 20.8 SSW 2 3 1009.7 - 0.0 - - - - - - -
18/08:00am 20.3 SW 1 2 1009.8 - 0.0 - - - - - - -
18/07:30am 20.0 CALM 0 1 1009.7 - 0.0 - - - - - - -
18/07:00am 19.4 CALM 0 0 1009.7 - 0.0 - - - - - - -
18/06:30am 19.0 CALM 0 1 1009.0 - 0.0 - - - - - - -
18/06:00am 18.8 CALM 0 0 1009.0 - 0.0 - - - - - - -
18/05:30am 18.9 CALM 0 0 1009.1 - 0.0 - - - - - - -
18/05:00am 19.0 W 1 2 1008.7 - 0.0 - - - - - - -
18/04:30am 18.8 CALM 0 0 1008.4 - 0.0 - - - - - - -
18/04:00am 18.9 CALM 0 0 1008.8 - 0.0 - - - - - - -
18/03:30am 19.0 SW 1 2 1008.9 - 0.0 - - - - - - -
18/03:00am 18.8 CALM 0 0 1009.1 - 0.0 - - - - - - -
18/02:30am 18.7 CALM 0 0 1009.5 - 0.0 - - - - - - -
18/02:00am 19.3 WNW 2 4 1010.6 - 0.0 - - - - - - -
18/01:30am 18.7 N 2 3 1010.1 - 0.0 - - - - - - -
18/01:00am 18.5 CALM 0 0 1010.1 - 0.0 - - - - - - -
18/12:30am 18.8 CALM 0 0 1010.5 - 0.0 - - - - - - -
18/12:00am 18.9 CALM 0 0 1010.9 - 0.0 - - - - - - -
 
Date/Time
EDT
Temp

°C
Wind Pressure Rain
since 9am
mm
Weather Cloud Vis
km
Sea
Height
m
Swell
Dir
 
Speed
knots
Gust
knots
hPa Trend Height
m
Period
s
Dir
17/11:30pm 19.0 CALM 0 0 1011.2 - 0.0 - - - - - - -
17/11:00pm 19.4 SW 2 3 1011.4 - 0.0 - - - - - - -
17/10:30pm 18.6 CALM 0 0 1011.1 - 0.0 - - - - - - -
17/10:00pm 19.4 CALM 0 0 1011.4 - 0.0 - - - - - - -
17/09:30pm 19.6 WSW 1 2 1011.1 - 0.0 - - - - - - -
17/09:00pm 19.7 CALM 0 2 1010.5 - 0.0 - - - - - - -
17/08:30pm 19.8 S 2 4 1010.5 - 0.0 - - - - - - -
17/08:00pm 20.1 SE 3 7 1010.4 - 0.0 - - - - - - -
17/07:30pm 20.2 SE 3 6 1010.2 - 0.0 - - - - - - -
17/07:00pm 20.4 SE 4 8 1009.7 - 0.0 - - - - - - -
17/06:30pm 20.4 SSE 4 8 1008.9 - 0.0 - - - - - - -
17/06:00pm 20.4 SE 4 8 1008.5 - 0.0 - - - - - - -
17/05:30pm 20.4 SE 6 12 1008.1 - 0.0 - - - - - - -
17/05:00pm 20.6 SE 6 12 1007.7 - 0.0 - - - - - - -
17/04:30pm 20.7 ESE 7 12 1007.7 - 0.0 - - - - - - -
17/04:00pm 21.4 ESE 7 13 1007.4 - 0.0 - - - - - - -
17/03:30pm 21.9 SSE 7 12 1007.5 - 0.0 - - - - - - -
17/03:00pm 22.1 SE 6 11 1007.6 - 0.0 - - - - - - -
17/02:30pm 22.7 SSE 7 11 1007.6 - 0.0 - - - - - - -
17/02:00pm 22.6 SE 7 14 1007.5 - 0.0 - - - - - - -
17/01:30pm 22.4 SE 8 14 1007.5 - 0.0 - - - - - - -
17/01:00pm 22.8 SE 8 15 1007.4 - 0.0 - - - - - - -

Other Formats:

Comma delimited format used in spreadsheet applications
http://www.bom.gov.au/fwo/IDN60701/IDN60701.95767.axf

JavaScript Object Notation format (JSON) in row-major order
http://www.bom.gov.au/fwo/IDN60701/IDN60701.95767.json